createdAt,value
2023-02-28T00:00:11.980Z,93.15
2023-02-28T00:02:44.152Z,93.92
2023-02-28T00:05:15.696Z,93.93
2023-02-28T00:07:45.945Z,94.01
2023-02-28T00:10:22.477Z,92.96
2023-02-28T00:12:53.782Z,93.44
2023-02-28T00:15:24.514Z,93.84
2023-02-28T00:17:56.057Z,94.21
2023-02-28T00:20:25.641Z,93.67
2023-02-28T00:22:56.103Z,93.87
2023-02-28T00:25:27.436Z,94.40
2023-02-28T00:27:57.789Z,93.52
2023-02-28T00:30:28.173Z,93.71
2023-02-28T00:32:57.878Z,93.19
2023-02-28T00:35:27.965Z,92.59
2023-02-28T00:37:57.812Z,92.60
2023-02-28T00:40:27.591Z,92.90
2023-02-28T00:42:57.714Z,92.54
2023-02-28T00:45:28.024Z,92.55
2023-02-28T00:47:57.691Z,92.96
2023-02-28T00:50:27.378Z,93.22
2023-02-28T00:52:57.538Z,94.08
2023-02-28T00:55:30.286Z,93.60
2023-02-28T00:57:59.569Z,93.22
2023-02-28T01:00:29.520Z,93.69
2023-02-28T01:02:58.749Z,93.25
2023-02-28T01:05:28.782Z,93.84
2023-02-28T01:07:58.109Z,93.34
2023-02-28T01:10:28.110Z,93.15
2023-02-28T01:12:57.673Z,93.94
2023-02-28T01:15:26.783Z,93.44
2023-02-28T01:17:56.200Z,92.46
2023-02-28T01:20:28.544Z,93.16
2023-02-28T01:22:58.091Z,93.43
2023-02-28T01:25:28.018Z,93.26
2023-02-28T01:27:57.394Z,94.10
2023-02-28T01:30:30.016Z,93.99
2023-02-28T01:32:59.377Z,94.75
2023-02-28T01:35:28.496Z,92.81
2023-02-28T01:38:06.830Z,93.51
2023-02-28T01:40:42.771Z,93.41
2023-02-28T01:43:23.966Z,94.16
2023-02-28T01:45:58.033Z,93.06
2023-02-28T01:48:35.382Z,93.49
2023-02-28T01:51:11.311Z,93.56
2023-02-28T01:53:48.277Z,94.05
2023-02-28T01:56:25.417Z,93.77
2023-02-28T01:58:56.312Z,93.68
2023-02-28T02:01:29.615Z,93.12
2023-02-28T02:04:03.338Z,94.27
2023-02-28T02:06:46.393Z,93.59
2023-02-28T02:09:16.503Z,93.73
2023-02-28T02:11:48.211Z,94.18
2023-02-28T02:14:35.944Z,94.62
2023-02-28T02:17:20.998Z,94.33
2023-02-28T02:20:10.662Z,94.68
2023-02-28T02:23:17.094Z,94.20
2023-02-28T02:25:53.917Z,94.02
2023-02-28T02:28:41.108Z,93.57
2023-02-28T02:31:45.175Z,94.20
2023-02-28T02:34:21.770Z,93.38
2023-02-28T02:37:06.137Z,93.68
2023-02-28T02:40:01.495Z,93.39
2023-02-28T02:42:58.986Z,93.25
2023-02-28T02:45:44.368Z,94.26
2023-02-28T02:48:18.061Z,93.39
2023-02-28T02:50:52.769Z,93.67
2023-02-28T02:53:38.753Z,94.12
2023-02-28T02:56:13.324Z,93.59
2023-02-28T02:58:46.716Z,93.80
2023-02-28T03:01:29.648Z,94.17
2023-02-28T03:04:05.052Z,94.05
2023-02-28T03:06:36.713Z,93.69
2023-02-28T03:09:07.552Z,93.35
2023-02-28T03:11:39.662Z,93.30
2023-02-28T03:14:29.075Z,93.58
2023-02-28T03:17:26.472Z,94.05
2023-02-28T03:20:08.686Z,93.86
2023-02-28T03:23:06.713Z,93.68
2023-02-28T03:26:04.658Z,93.75
2023-02-28T03:28:53.897Z,93.79
2023-02-28T03:31:43.593Z,92.91
2023-02-28T03:34:21.225Z,94.57
2023-02-28T03:36:55.850Z,92.64
2023-02-28T03:39:34.199Z,92.76
2023-02-28T03:42:18.338Z,93.11
2023-02-28T03:44:52.244Z,93.01
2023-02-28T03:47:47.339Z,93.02
2023-02-28T03:50:26.976Z,92.66
2023-02-28T03:53:06.607Z,91.99
2023-02-28T03:55:41.733Z,92.69
2023-02-28T03:58:43.643Z,92.77
2023-02-28T04:01:20.116Z,92.96
2023-02-28T04:03:51.985Z,92.59
2023-02-28T04:06:26.600Z,91.64
2023-02-28T04:08:56.427Z,92.87
2023-02-28T04:11:39.413Z,93.09
2023-02-28T04:14:12.026Z,92.59
2023-02-28T04:16:43.927Z,91.59
2023-02-28T04:19:15.020Z,91.89
2023-02-28T04:21:49.890Z,92.09
2023-02-28T04:24:22.535Z,92.22
2023-02-28T04:26:55.683Z,93.03
2023-02-28T04:29:28.084Z,92.29
2023-02-28T04:32:00.661Z,93.91
2023-02-28T04:34:32.196Z,92.18
2023-02-28T04:37:13.787Z,92.36
2023-02-28T04:39:44.761Z,92.87
2023-02-28T04:42:15.659Z,91.80
2023-02-28T04:44:45.391Z,91.11
2023-02-28T04:47:15.350Z,91.35
2023-02-28T04:49:44.477Z,91.42
2023-02-28T04:52:15.087Z,91.25
2023-02-28T04:54:44.713Z,91.58
2023-02-28T04:57:14.608Z,91.76
2023-02-28T04:59:44.374Z,92.02
2023-02-28T05:02:13.742Z,92.85
2023-02-28T05:04:43.680Z,93.12
2023-02-28T05:07:13.272Z,91.10
2023-02-28T05:09:42.711Z,90.27
2023-02-28T05:12:13.164Z,90.12
2023-02-28T05:14:42.493Z,90.16
2023-02-28T05:17:12.233Z,90.53
2023-02-28T05:19:42.278Z,90.70
2023-02-28T05:22:18.472Z,90.89
2023-02-28T05:24:48.566Z,91.01
2023-02-28T05:27:18.742Z,89.46
2023-02-28T05:29:48.690Z,90.45
2023-02-28T05:32:18.184Z,89.52
2023-02-28T05:34:47.805Z,89.62
2023-02-28T05:37:18.467Z,88.98
2023-02-28T05:39:47.812Z,88.57
2023-02-28T05:42:17.681Z,88.81
2023-02-28T05:44:47.669Z,89.45
2023-02-28T05:47:18.548Z,89.07
2023-02-28T05:49:47.926Z,89.81
2023-02-28T05:52:20.129Z,88.05
2023-02-28T05:54:50.021Z,87.81
2023-02-28T05:57:24.585Z,88.54
2023-02-28T05:59:54.710Z,87.03
2023-02-28T06:02:25.728Z,87.12
2023-02-28T06:04:55.749Z,88.14
2023-02-28T06:07:25.218Z,86.92
2023-02-28T06:09:54.697Z,86.62
2023-02-28T06:12:24.859Z,86.84
2023-02-28T06:14:54.580Z,86.95
2023-02-28T06:17:23.674Z,87.51
2023-02-28T06:19:53.781Z,84.53
2023-02-28T06:22:23.460Z,85.65
2023-02-28T06:25:01.758Z,86.29
2023-02-28T06:27:32.378Z,84.99
2023-02-28T06:30:03.872Z,83.88
2023-02-28T06:32:33.477Z,83.42
2023-02-28T06:35:03.389Z,81.99
2023-02-28T06:37:35.409Z,82.85
2023-02-28T06:40:08.482Z,81.12
2023-02-28T06:42:38.485Z,82.68
2023-02-28T06:45:12.860Z,80.10
2023-02-28T06:47:54.103Z,81.94
2023-02-28T06:50:23.873Z,79.59
2023-02-28T06:52:57.481Z,82.49
2023-02-28T06:55:30.387Z,79.91
2023-02-28T06:58:00.597Z,76.90
2023-02-28T07:00:30.814Z,77.84
2023-02-28T07:03:00.045Z,75.30
2023-02-28T07:05:31.957Z,76.23
2023-02-28T07:08:03.379Z,75.65
2023-02-28T07:10:33.242Z,74.42
2023-02-28T07:13:03.261Z,73.72
2023-02-28T07:15:35.495Z,73.44
2023-02-28T07:18:06.953Z,72.25
2023-02-28T07:20:36.257Z,68.91
2023-02-28T07:23:05.814Z,68.12
2023-02-28T07:25:38.489Z,67.92
2023-02-28T07:28:08.493Z,68.78
2023-02-28T07:30:38.130Z,66.38
2023-02-28T07:33:08.136Z,65.53
2023-02-28T07:35:37.483Z,64.53
2023-02-28T07:38:09.137Z,65.14
2023-02-28T07:40:40.032Z,64.37
2023-02-28T07:43:09.557Z,63.60
2023-02-28T07:45:39.264Z,63.59
2023-02-28T07:48:11.926Z,63.77
2023-02-28T07:50:41.035Z,62.96
2023-02-28T07:53:10.936Z,65.36
2023-02-28T07:55:41.753Z,62.57
2023-02-28T07:58:11.791Z,63.46
2023-02-28T08:00:41.374Z,62.01
2023-02-28T08:03:15.173Z,62.28
2023-02-28T08:05:44.678Z,62.62
2023-02-28T08:08:14.871Z,60.80
2023-02-28T08:10:44.539Z,61.21
2023-02-28T08:13:14.358Z,61.61
2023-02-28T08:15:44.826Z,61.64
2023-02-28T08:18:14.821Z,61.33
2023-02-28T08:20:44.911Z,62.01
2023-02-28T08:23:14.369Z,61.84
2023-02-28T08:25:43.749Z,62.82
2023-02-28T08:28:13.873Z,62.42
2023-02-28T08:30:43.556Z,61.30
2023-02-28T08:33:13.010Z,60.87
2023-02-28T08:35:44.158Z,61.03
2023-02-28T08:38:13.473Z,60.89
2023-02-28T08:40:46.446Z,60.67
2023-02-28T08:43:16.205Z,60.76
2023-02-28T08:45:46.216Z,60.57
2023-02-28T08:48:18.088Z,61.25
2023-02-28T08:51:11.047Z,61.52
2023-02-28T08:53:41.661Z,59.32
2023-02-28T08:56:13.710Z,59.36
2023-02-28T08:58:43.108Z,60.26
2023-02-28T09:01:17.891Z,60.09
2023-02-28T09:03:50.030Z,60.71
2023-02-28T09:06:21.727Z,61.67
2023-02-28T09:08:51.446Z,61.34
2023-02-28T09:11:24.468Z,61.63
2023-02-28T09:14:32.468Z,60.59
2023-02-28T09:17:30.728Z,61.46
2023-02-28T09:20:05.044Z,62.03
2023-02-28T09:22:39.366Z,60.50
2023-02-28T09:25:12.080Z,61.05
2023-02-28T09:27:47.310Z,62.13
2023-02-28T09:30:16.993Z,62.49
2023-02-28T09:32:54.342Z,63.26
2023-02-28T09:35:25.257Z,63.34
2023-02-28T09:37:55.749Z,64.37
2023-02-28T09:40:27.803Z,64.01
2023-02-28T09:42:59.574Z,64.39
2023-02-28T09:45:36.319Z,63.67
2023-02-28T09:48:21.250Z,64.00
2023-02-28T09:50:55.307Z,64.81
2023-02-28T09:53:35.824Z,65.06
2023-02-28T09:56:13.395Z,65.65
2023-02-28T09:58:50.848Z,66.43
2023-02-28T10:01:45.618Z,66.42
2023-02-28T10:04:26.940Z,67.01
2023-02-28T10:06:56.302Z,67.31
2023-02-28T10:09:32.736Z,67.84
2023-02-28T10:12:07.213Z,68.39
2023-02-28T10:14:40.758Z,69.24
2023-02-28T10:17:16.818Z,69.47
2023-02-28T10:20:09.805Z,69.63
2023-02-28T10:22:46.778Z,70.02
2023-02-28T10:25:25.332Z,70.20
2023-02-28T10:28:16.435Z,70.15
2023-02-28T10:30:52.533Z,70.12
2023-02-28T10:33:37.855Z,70.00
2023-02-28T10:36:09.319Z,70.53
2023-02-28T10:38:41.034Z,70.11
2023-02-28T10:41:18.662Z,69.69
2023-02-28T10:43:47.955Z,69.71
2023-02-28T10:46:27.755Z,69.85
2023-02-28T10:49:14.305Z,70.83
2023-02-28T10:51:45.802Z,70.78
2023-02-28T10:54:21.835Z,71.35
2023-02-28T10:57:21.697Z,70.92
2023-02-28T11:00:07.748Z,70.79
2023-02-28T11:02:42.855Z,70.81
2023-02-28T11:05:33.906Z,70.62
2023-02-28T11:08:14.594Z,71.48
2023-02-28T11:10:55.858Z,71.59
2023-02-28T11:13:32.690Z,71.71
2023-02-28T11:16:06.410Z,70.96
2023-02-28T11:18:48.854Z,71.60
2023-02-28T11:21:23.153Z,71.78
2023-02-28T11:23:58.610Z,71.95
2023-02-28T11:26:48.606Z,71.83
2023-02-28T11:29:27.866Z,72.28
2023-02-28T11:32:24.835Z,71.90
2023-02-28T11:35:18.909Z,73.08
2023-02-28T11:37:48.017Z,73.53
2023-02-28T11:40:31.059Z,74.17
2023-02-28T11:43:27.016Z,74.25
2023-02-28T11:46:13.399Z,74.33
2023-02-28T11:48:59.841Z,74.72
2023-02-28T11:51:36.834Z,74.71
2023-02-28T11:54:11.270Z,74.94
2023-02-28T11:56:50.212Z,75.02
2023-02-28T11:59:46.356Z,75.33
2023-02-28T12:02:19.575Z,75.39
2023-02-28T12:05:07.767Z,75.33
2023-02-28T12:07:50.257Z,75.45
2023-02-28T12:10:24.711Z,76.23
2023-02-28T12:12:59.114Z,76.34
2023-02-28T12:15:50.919Z,76.54
2023-02-28T12:18:50.254Z,76.67
2023-02-28T12:21:32.775Z,77.08
2023-02-28T12:24:31.354Z,76.83
2023-02-28T12:27:08.644Z,76.40
2023-02-28T12:30:06.759Z,77.37
2023-02-28T12:32:45.126Z,79.39
2023-02-28T12:35:19.635Z,80.07
2023-02-28T12:37:58.927Z,80.25
2023-02-28T12:40:42.161Z,80.29
2023-02-28T12:43:15.242Z,81.21
2023-02-28T12:45:58.017Z,81.15
2023-02-28T12:48:47.919Z,80.76
2023-02-28T12:51:20.042Z,80.85
2023-02-28T12:54:21.960Z,80.85
2023-02-28T12:57:10.136Z,80.67
2023-02-28T12:59:53.721Z,80.52
2023-02-28T13:02:53.728Z,80.57
2023-02-28T13:05:35.522Z,79.38
2023-02-28T13:08:30.254Z,79.54
2023-02-28T13:11:02.165Z,79.86
2023-02-28T13:13:35.489Z,80.62
2023-02-28T13:16:10.368Z,80.82
2023-02-28T13:18:45.595Z,80.82
2023-02-28T13:21:32.636Z,80.38
2023-02-28T13:24:06.321Z,80.02
2023-02-28T13:26:38.931Z,80.52
2023-02-28T13:29:25.832Z,80.35
2023-02-28T13:32:11.746Z,81.11
2023-02-28T13:35:02.210Z,81.46
2023-02-28T13:37:43.523Z,81.44
2023-02-28T13:40:13.325Z,82.12
2023-02-28T13:42:52.152Z,81.90
2023-02-28T13:45:25.816Z,82.00
2023-02-28T13:47:58.464Z,82.78
2023-02-28T13:50:37.126Z,82.82
2023-02-28T13:53:40.146Z,82.47
2023-02-28T13:56:38.436Z,82.44
2023-02-28T13:59:40.627Z,82.69
2023-02-28T14:02:26.958Z,82.94
2023-02-28T14:05:08.887Z,83.32
2023-02-28T14:07:46.961Z,83.17
2023-02-28T14:10:34.177Z,83.73
2023-02-28T14:13:26.247Z,84.29
2023-02-28T14:16:03.296Z,83.35
2023-02-28T14:18:37.020Z,83.36
2023-02-28T14:21:16.036Z,83.84
2023-02-28T14:24:04.702Z,83.92
2023-02-28T14:26:56.908Z,83.99
2023-02-28T14:29:46.282Z,84.78
2023-02-28T14:32:36.338Z,84.37
2023-02-28T14:35:33.245Z,84.10
2023-02-28T14:38:22.025Z,84.74
2023-02-28T14:41:01.652Z,84.99
2023-02-28T14:43:31.844Z,85.48
2023-02-28T14:46:07.629Z,85.49
2023-02-28T14:48:38.105Z,85.47
2023-02-28T14:51:11.436Z,85.64
2023-02-28T14:53:43.682Z,85.51
2023-02-28T14:56:29.481Z,85.90
2023-02-28T14:58:59.599Z,85.60
2023-02-28T15:01:29.546Z,85.71
2023-02-28T15:04:05.679Z,86.32
2023-02-28T15:06:36.236Z,86.56
2023-02-28T15:09:10.437Z,86.75
2023-02-28T15:11:43.774Z,86.62
2023-02-28T15:14:21.563Z,87.09
2023-02-28T15:17:00.402Z,86.27
2023-02-28T15:19:35.991Z,86.50
2023-02-28T15:22:11.906Z,86.95
2023-02-28T15:24:44.485Z,87.89
2023-02-28T15:27:23.089Z,88.12
2023-02-28T15:29:58.087Z,88.77
2023-02-28T15:32:36.308Z,88.52
2023-02-28T15:35:27.479Z,89.12
2023-02-28T15:38:02.739Z,89.88
2023-02-28T15:40:43.533Z,89.52
2023-02-28T15:43:38.222Z,88.35
2023-02-28T15:46:14.369Z,89.77
2023-02-28T15:49:00.898Z,89.30
2023-02-28T15:51:36.682Z,89.42
2023-02-28T15:54:16.055Z,90.66
2023-02-28T15:56:49.643Z,90.40
2023-02-28T15:59:24.899Z,90.44
2023-02-28T16:02:23.521Z,90.67
2023-02-28T16:04:59.864Z,91.49
2023-02-28T16:07:31.005Z,91.50
2023-02-28T16:10:02.568Z,92.08
2023-02-28T16:12:35.525Z,91.18
2023-02-28T16:15:22.002Z,91.43
2023-02-28T16:17:54.238Z,91.17
2023-02-28T16:20:29.031Z,90.80
2023-02-28T16:23:02.982Z,91.53
2023-02-28T16:25:41.996Z,91.28
2023-02-28T16:28:25.787Z,91.45
2023-02-28T16:30:56.906Z,90.74
2023-02-28T16:33:29.722Z,91.72
2023-02-28T16:36:01.320Z,91.92
2023-02-28T16:38:32.317Z,91.14
2023-02-28T16:41:05.736Z,91.35
2023-02-28T16:43:36.242Z,91.46
2023-02-28T16:46:08.605Z,91.07
2023-02-28T16:48:42.418Z,91.63
2023-02-28T16:51:21.981Z,91.45
2023-02-28T16:53:53.006Z,90.56
2023-02-28T16:56:27.329Z,89.82
2023-02-28T16:59:01.838Z,91.03
2023-02-28T17:01:33.665Z,90.38
2023-02-28T17:04:04.400Z,90.67
2023-02-28T17:06:35.246Z,90.19
2023-02-28T17:09:06.118Z,90.72
2023-02-28T17:11:37.822Z,90.36
2023-02-28T17:14:08.127Z,90.19
2023-02-28T17:16:44.148Z,90.65
2023-02-28T17:19:17.447Z,90.31
2023-02-28T17:21:49.845Z,89.59
2023-02-28T17:24:30.182Z,90.39
2023-02-28T17:27:03.293Z,90.53
2023-02-28T17:29:33.428Z,90.62
2023-02-28T17:32:16.955Z,90.46
2023-02-28T17:34:47.998Z,90.73
2023-02-28T17:37:22.150Z,91.05
2023-02-28T17:39:56.430Z,90.80
2023-02-28T17:42:33.728Z,90.63
2023-02-28T17:45:03.967Z,91.52
2023-02-28T17:47:34.707Z,92.22
2023-02-28T17:50:05.779Z,93.88
2023-02-28T17:52:38.890Z,94.18
2023-02-28T17:55:13.872Z,94.72
2023-02-28T17:57:45.052Z,93.91
2023-02-28T18:00:17.572Z,94.24
2023-02-28T18:02:50.525Z,95.34
2023-02-28T18:05:26.342Z,95.85
2023-02-28T18:08:02.480Z,94.74
2023-02-28T18:10:34.684Z,95.71
2023-02-28T18:13:06.152Z,95.38
2023-02-28T18:15:39.918Z,95.26
2023-02-28T18:18:18.497Z,95.85
2023-02-28T18:20:55.155Z,95.21
2023-02-28T18:23:26.757Z,94.86
2023-02-28T18:26:00.940Z,95.94
2023-02-28T18:28:32.151Z,97.56
2023-02-28T18:31:08.177Z,100.00
2023-02-28T18:33:38.645Z,98.83
2023-02-28T18:36:09.008Z,92.48
2023-02-28T18:38:40.626Z,86.30
2023-02-28T18:41:11.419Z,84.40
2023-02-28T18:43:42.122Z,81.43
2023-02-28T18:46:15.462Z,79.85
2023-02-28T18:48:46.846Z,80.67
2023-02-28T18:51:22.432Z,80.57
2023-02-28T18:53:52.848Z,80.16
2023-02-28T18:56:27.806Z,79.26
2023-02-28T18:58:57.649Z,79.09
2023-02-28T19:01:34.254Z,78.46
2023-02-28T19:04:05.630Z,78.97
2023-02-28T19:06:35.709Z,79.97
2023-02-28T19:09:12.719Z,79.34
2023-02-28T19:11:48.008Z,79.35
2023-02-28T19:14:21.183Z,79.43
2023-02-28T19:16:54.550Z,79.02
2023-02-28T19:19:24.947Z,79.42
2023-02-28T19:21:56.159Z,79.18
2023-02-28T19:24:26.162Z,79.43
2023-02-28T19:26:57.587Z,79.34
2023-02-28T19:29:28.138Z,79.51
2023-02-28T19:31:57.934Z,79.63
2023-02-28T19:34:30.782Z,79.92
2023-02-28T19:37:01.536Z,80.01
2023-02-28T19:39:41.871Z,80.05
2023-02-28T19:42:15.203Z,80.24
2023-02-28T19:44:46.171Z,80.31
2023-02-28T19:47:16.808Z,80.56
2023-02-28T19:49:46.888Z,80.72
2023-02-28T19:52:17.596Z,79.88
2023-02-28T19:54:47.864Z,80.17
2023-02-28T19:57:18.479Z,80.44
2023-02-28T19:59:49.203Z,80.19
2023-02-28T20:02:23.495Z,79.70
2023-02-28T20:04:55.003Z,80.08
2023-02-28T20:07:24.909Z,80.03
2023-02-28T20:09:54.917Z,81.29
2023-02-28T20:12:25.094Z,78.97
2023-02-28T20:14:57.069Z,78.75
2023-02-28T20:17:26.541Z,78.86
2023-02-28T20:19:56.327Z,78.60
2023-02-28T20:22:29.063Z,78.14
2023-02-28T20:24:59.250Z,78.06
2023-02-28T20:27:29.639Z,78.52
2023-02-28T20:29:59.705Z,77.52
2023-02-28T20:32:29.141Z,77.40
2023-02-28T20:34:58.894Z,77.84
2023-02-28T20:37:29.612Z,78.01
2023-02-28T20:39:58.973Z,78.01
2023-02-28T20:42:29.813Z,78.32
2023-02-28T20:44:59.604Z,79.44
2023-02-28T20:47:32.412Z,79.29
2023-02-28T20:50:02.325Z,78.79
2023-02-28T20:52:32.889Z,77.79
2023-02-28T20:55:02.442Z,77.67
2023-02-28T20:57:32.166Z,77.92
2023-02-28T21:00:02.333Z,75.88
2023-02-28T21:02:43.528Z,75.78
2023-02-28T21:05:13.507Z,75.45
2023-02-28T21:07:43.195Z,73.97
2023-02-28T21:10:13.384Z,72.71
2023-02-28T21:12:43.469Z,75.12
2023-02-28T21:15:13.502Z,72.48
2023-02-28T21:17:42.899Z,72.45
2023-02-28T21:20:22.661Z,70.21
2023-02-28T21:22:54.340Z,70.05
2023-02-28T21:25:25.194Z,68.84
2023-02-28T21:27:56.460Z,67.79
2023-02-28T21:30:26.548Z,68.72
2023-02-28T21:32:55.750Z,69.04
2023-02-28T21:35:25.756Z,68.33
2023-02-28T21:37:55.128Z,70.64
2023-02-28T21:40:24.546Z,69.93
2023-02-28T21:42:57.359Z,66.98
2023-02-28T21:45:29.149Z,66.61
2023-02-28T21:47:59.083Z,67.10
2023-02-28T21:50:30.671Z,66.81
2023-02-28T21:53:01.217Z,66.93
2023-02-28T21:55:30.576Z,66.84
2023-02-28T21:57:59.686Z,68.13
2023-02-28T22:00:30.241Z,66.93
2023-02-28T22:02:59.857Z,68.17
2023-02-28T22:05:31.159Z,68.31
2023-02-28T22:08:01.494Z,68.08
2023-02-28T22:10:30.894Z,68.46
2023-02-28T22:13:02.549Z,67.49
2023-02-28T22:15:32.469Z,66.49
2023-02-28T22:18:02.214Z,65.71
2023-02-28T22:20:31.230Z,66.72
2023-02-28T22:23:00.741Z,67.64
2023-02-28T22:25:30.816Z,67.07
2023-02-28T22:28:00.071Z,67.51
2023-02-28T22:30:29.481Z,66.87
2023-02-28T22:32:59.264Z,67.24
2023-02-28T22:35:30.088Z,67.70
2023-02-28T22:37:59.966Z,67.90
2023-02-28T22:40:29.429Z,67.61
2023-02-28T22:42:58.619Z,67.52
2023-02-28T22:45:28.654Z,67.59
2023-02-28T22:47:57.915Z,68.00
2023-02-28T22:50:27.936Z,67.85
2023-02-28T22:52:57.197Z,68.42
2023-02-28T22:55:26.947Z,68.45
2023-02-28T22:57:56.392Z,70.13
2023-02-28T23:00:26.103Z,68.85
2023-02-28T23:02:55.481Z,68.71
2023-02-28T23:05:25.712Z,68.53
2023-02-28T23:07:54.744Z,68.50
2023-02-28T23:10:25.234Z,72.85
2023-02-28T23:12:55.540Z,70.61
2023-02-28T23:15:25.382Z,72.38
2023-02-28T23:17:54.982Z,68.78
2023-02-28T23:20:24.462Z,73.65
2023-02-28T23:22:54.008Z,71.36
2023-02-28T23:25:23.413Z,74.79
2023-02-28T23:27:53.824Z,70.34
2023-02-28T23:30:23.405Z,73.33
2023-02-28T23:32:52.548Z,69.23
2023-02-28T23:35:22.602Z,70.25
2023-02-28T23:37:51.918Z,75.06
2023-02-28T23:40:23.190Z,75.44
2023-02-28T23:42:52.939Z,77.40
2023-02-28T23:45:22.885Z,78.23
2023-02-28T23:47:52.200Z,77.79
2023-02-28T23:50:21.447Z,78.26
2023-02-28T23:52:52.514Z,79.11
2023-02-28T23:55:22.012Z,80.31
2023-02-28T23:57:53.669Z,76.95
